KFYM/FYM METAR and TAF weather

Enter ICAO airport designator
Station Type Date Time Source
KFYM METAR 2020/02/19 14:35 UTC NOAA

KFYM 191435Z AUTO 01011KT 8SM OVC011 05/03 A3037 RMK A01


Station Type Date Time Source
KFYM Decoded METAR 2020/02/19 14:35 UTC NOAA

Station name not available
Feb 19, 2020 - 09:35 AM EST / 2020.02.19 1435 UTC
Wind: from the N (010 degrees) at 13 MPH (11 KT):0
Visibility: 8 mile(s):0
Sky conditions: overcast
Temperature: 41 F (5 C)
Dew Point: 37 F (3 C)
Relative Humidity: 86%
Pressure (altimeter): 30.37 in. Hg (1028 hPa)
ob: KFYM 191435Z AUTO 01011KT 8SM OVC011 05/03 A3037 RMK A01
cycle: 14

Station Type Date Time Source
KFYM TAF 2009/08/31 19:45 UTC NOAA

METAR KFYM 311945Z AUTO 01006KT 10SM CLR 26/11 A3009
RMK AO1 T02550111 $

Example: see airport list